sensor_id;sensor_type;location;lat;lon;timestamp;P1;durP1;ratioP1;P2;durP2;ratioP2
71150;SDS011;59071;42.138;24.768;2022-12-18T00:01:40;49.17;;;28.55;;
71150;SDS011;59071;42.138;24.768;2022-12-18T00:04:07;52.63;;;30.05;;
71150;SDS011;59071;42.138;24.768;2022-12-18T00:06:39;54.40;;;30.52;;
71150;SDS011;59071;42.138;24.768;2022-12-18T00:09:05;52.15;;;29.55;;
71150;SDS011;59071;42.138;24.768;2022-12-18T00:11:31;53.53;;;30.75;;
71150;SDS011;59071;42.138;24.768;2022-12-18T00:13:58;50.30;;;28.80;;
71150;SDS011;59071;42.138;24.768;2022-12-18T00:16:25;50.80;;;28.15;;
71150;SDS011;59071;42.138;24.768;2022-12-18T00:18:52;51.50;;;29.00;;
71150;SDS011;59071;42.138;24.768;2022-12-18T00:21:20;53.00;;;29.77;;
71150;SDS011;59071;42.138;24.768;2022-12-18T00:23:46;47.55;;;27.80;;
71150;SDS011;59071;42.138;24.768;2022-12-18T00:26:15;47.40;;;28.10;;
71150;SDS011;59071;42.138;24.768;2022-12-18T00:28:51;47.42;;;27.70;;
71150;SDS011;59071;42.138;24.768;2022-12-18T00:31:19;49.92;;;29.52;;
71150;SDS011;59071;42.138;24.768;2022-12-18T00:33:46;51.67;;;29.35;;
71150;SDS011;59071;42.138;24.768;2022-12-18T00:36:13;49.53;;;28.80;;
71150;SDS011;59071;42.138;24.768;2022-12-18T00:38:45;54.05;;;30.92;;
71150;SDS011;59071;42.138;24.768;2022-12-18T00:41:12;52.30;;;30.15;;
71150;SDS011;59071;42.138;24.768;2022-12-18T00:43:39;50.00;;;29.55;;
71150;SDS011;59071;42.138;24.768;2022-12-18T00:46:05;53.58;;;30.30;;
71150;SDS011;59071;42.138;24.768;2022-12-18T00:48:31;53.63;;;30.88;;
71150;SDS011;59071;42.138;24.768;2022-12-18T00:50:57;53.97;;;31.17;;
71150;SDS011;59071;42.138;24.768;2022-12-18T00:53:22;57.67;;;32.00;;
71150;SDS011;59071;42.138;24.768;2022-12-18T00:55:48;49.85;;;29.10;;
71150;SDS011;59071;42.138;24.768;2022-12-18T00:58:14;55.28;;;28.52;;
71150;SDS011;59071;42.138;24.768;2022-12-18T01:00:41;61.08;;;29.45;;
71150;SDS011;59071;42.138;24.768;2022-12-18T01:03:07;69.20;;;28.50;;
71150;SDS011;59071;42.138;24.768;2022-12-18T01:05:32;68.97;;;30.55;;
71150;SDS011;59071;42.138;24.768;2022-12-18T01:07:58;62.47;;;28.65;;
71150;SDS011;59071;42.138;24.768;2022-12-18T01:10:24;59.88;;;28.73;;
71150;SDS011;59071;42.138;24.768;2022-12-18T01:15:20;50.25;;;28.35;;
71150;SDS011;59071;42.138;24.768;2022-12-18T01:17:45;51.75;;;29.17;;
71150;SDS011;59071;42.138;24.768;2022-12-18T01:20:11;49.05;;;27.30;;
71150;SDS011;59071;42.138;24.768;2022-12-18T01:22:37;49.72;;;27.65;;
71150;SDS011;59071;42.138;24.768;2022-12-18T01:25:03;53.90;;;28.50;;
71150;SDS011;59071;42.138;24.768;2022-12-18T01:27:29;51.25;;;27.60;;
71150;SDS011;59071;42.138;24.768;2022-12-18T01:29:55;45.25;;;25.90;;
71150;SDS011;59071;42.138;24.768;2022-12-18T01:32:20;52.70;;;28.98;;
71150;SDS011;59071;42.138;24.768;2022-12-18T01:34:47;46.88;;;27.77;;
71150;SDS011;59071;42.138;24.768;2022-12-18T01:37:12;50.13;;;27.60;;
71150;SDS011;59071;42.138;24.768;2022-12-18T01:39:37;46.67;;;27.27;;
71150;SDS011;59071;42.138;24.768;2022-12-18T01:42:03;48.53;;;29.10;;
71150;SDS011;59071;42.138;24.768;2022-12-18T01:49:55;47.42;;;27.85;;
71150;SDS011;59071;42.138;24.768;2022-12-18T01:52:22;47.15;;;27.00;;
71150;SDS011;59071;42.138;24.768;2022-12-18T01:54:51;47.33;;;27.40;;
71150;SDS011;59071;42.138;24.768;2022-12-18T01:57:18;45.53;;;27.23;;
71150;SDS011;59071;42.138;24.768;2022-12-18T01:59:45;45.33;;;27.38;;
71150;SDS011;59071;42.138;24.768;2022-12-18T02:02:15;38.63;;;24.88;;
71150;SDS011;59071;42.138;24.768;2022-12-18T02:04:42;41.88;;;25.48;;
71150;SDS011;59071;42.138;24.768;2022-12-18T02:07:11;38.85;;;23.25;;
71150;SDS011;59071;42.138;24.768;2022-12-18T02:09:50;42.97;;;21.58;;
71150;SDS011;59071;42.138;24.768;2022-12-18T02:12:24;33.90;;;21.55;;
71150;SDS011;59071;42.138;24.768;2022-12-18T02:22:47;28.92;;;16.85;;
71150;SDS011;59071;42.138;24.768;2022-12-18T02:28:04;25.75;;;17.02;;
71150;SDS011;59071;42.138;24.768;2022-12-18T02:33:00;26.67;;;16.35;;
71150;SDS011;59071;42.138;24.768;2022-12-18T02:35:29;25.55;;;16.38;;
71150;SDS011;59071;42.138;24.768;2022-12-18T02:37:57;26.73;;;16.25;;
71150;SDS011;59071;42.138;24.768;2022-12-18T02:40:24;25.75;;;16.17;;
71150;SDS011;59071;42.138;24.768;2022-12-18T02:42:52;25.30;;;15.80;;
71150;SDS011;59071;42.138;24.768;2022-12-18T02:45:17;23.90;;;15.32;;
71150;SDS011;59071;42.138;24.768;2022-12-18T02:47:43;24.83;;;14.98;;
71150;SDS011;59071;42.138;24.768;2022-12-18T02:56:10;21.25;;;14.30;;
71150;SDS011;59071;42.138;24.768;2022-12-18T03:03:52;24.70;;;15.15;;
71150;SDS011;59071;42.138;24.768;2022-12-18T03:06:29;23.80;;;14.48;;
71150;SDS011;59071;42.138;24.768;2022-12-18T03:08:59;22.85;;;14.73;;
71150;SDS011;59071;42.138;24.768;2022-12-18T03:11:30;24.08;;;15.20;;
71150;SDS011;59071;42.138;24.768;2022-12-18T03:14:17;23.95;;;15.25;;
71150;SDS011;59071;42.138;24.768;2022-12-18T03:16:46;24.00;;;14.63;;
71150;SDS011;59071;42.138;24.768;2022-12-18T03:19:20;21.45;;;14.27;;
71150;SDS011;59071;42.138;24.768;2022-12-18T03:21:49;21.42;;;13.68;;
71150;SDS011;59071;42.138;24.768;2022-12-18T03:24:18;22.73;;;14.18;;
71150;SDS011;59071;42.138;24.768;2022-12-18T03:26:47;22.65;;;14.25;;
71150;SDS011;59071;42.138;24.768;2022-12-18T03:29:18;22.35;;;13.90;;
71150;SDS011;59071;42.138;24.768;2022-12-18T03:31:47;21.23;;;13.88;;
71150;SDS011;59071;42.138;24.768;2022-12-18T03:34:17;23.35;;;14.23;;
71150;SDS011;59071;42.138;24.768;2022-12-18T03:36:48;19.55;;;13.57;;
71150;SDS011;59071;42.138;24.768;2022-12-18T03:39:14;23.75;;;14.73;;
71150;SDS011;59071;42.138;24.768;2022-12-18T03:52:27;19.60;;;12.05;;
71150;SDS011;59071;42.138;24.768;2022-12-18T03:55:01;17.23;;;11.90;;
71150;SDS011;59071;42.138;24.768;2022-12-18T03:57:30;17.42;;;11.20;;
71150;SDS011;59071;42.138;24.768;2022-12-18T03:59:59;17.40;;;11.48;;
71150;SDS011;59071;42.138;24.768;2022-12-18T04:02:30;16.42;;;11.35;;
71150;SDS011;59071;42.138;24.768;2022-12-18T04:04:57;17.05;;;11.50;;
71150;SDS011;59071;42.138;24.768;2022-12-18T04:07:25;17.77;;;10.97;;
71150;SDS011;59071;42.138;24.768;2022-12-18T04:09:53;16.55;;;10.90;;
71150;SDS011;59071;42.138;24.768;2022-12-18T04:12:23;15.43;;;10.38;;
71150;SDS011;59071;42.138;24.768;2022-12-18T04:14:50;15.27;;;10.57;;
71150;SDS011;59071;42.138;24.768;2022-12-18T04:17:16;16.55;;;9.93;;
71150;SDS011;59071;42.138;24.768;2022-12-18T04:19:41;16.80;;;10.88;;
71150;SDS011;59071;42.138;24.768;2022-12-18T04:22:08;15.52;;;10.88;;
71150;SDS011;59071;42.138;24.768;2022-12-18T04:24:35;17.58;;;11.20;;
71150;SDS011;59071;42.138;24.768;2022-12-18T04:27:00;15.10;;;9.88;;
71150;SDS011;59071;42.138;24.768;2022-12-18T04:29:26;15.60;;;10.27;;
71150;SDS011;59071;42.138;24.768;2022-12-18T04:31:51;13.43;;;9.57;;
71150;SDS011;59071;42.138;24.768;2022-12-18T04:34:17;13.93;;;8.90;;
71150;SDS011;59071;42.138;24.768;2022-12-18T04:36:42;15.10;;;9.35;;
71150;SDS011;59071;42.138;24.768;2022-12-18T04:39:07;13.95;;;8.73;;
71150;SDS011;59071;42.138;24.768;2022-12-18T04:41:33;12.68;;;7.85;;
71150;SDS011;59071;42.138;24.768;2022-12-18T04:43:58;12.40;;;7.60;;
71150;SDS011;59071;42.138;24.768;2022-12-18T04:46:24;12.27;;;8.25;;
71150;SDS011;59071;42.138;24.768;2022-12-18T04:48:49;13.77;;;7.80;;
71150;SDS011;59071;42.138;24.768;2022-12-18T04:51:14;13.45;;;7.95;;
71150;SDS011;59071;42.138;24.768;2022-12-18T04:53:40;11.52;;;7.38;;
71150;SDS011;59071;42.138;24.768;2022-12-18T04:56:07;8.57;;;6.63;;
71150;SDS011;59071;42.138;24.768;2022-12-18T04:58:35;10.45;;;7.13;;
71150;SDS011;59071;42.138;24.768;2022-12-18T05:01:01;10.77;;;6.53;;
71150;SDS011;59071;42.138;24.768;2022-12-18T05:03:27;9.88;;;6.20;;
71150;SDS011;59071;42.138;24.768;2022-12-18T05:05:52;11.45;;;6.30;;
71150;SDS011;59071;42.138;24.768;2022-12-18T05:08:18;9.57;;;6.13;;
71150;SDS011;59071;42.138;24.768;2022-12-18T05:10:43;8.15;;;6.03;;
71150;SDS011;59071;42.138;24.768;2022-12-18T05:13:09;8.98;;;5.97;;
71150;SDS011;59071;42.138;24.768;2022-12-18T05:15:34;7.95;;;5.63;;
71150;SDS011;59071;42.138;24.768;2022-12-18T05:18:00;7.60;;;5.50;;
71150;SDS011;59071;42.138;24.768;2022-12-18T05:20:26;8.55;;;5.43;;
71150;SDS011;59071;42.138;24.768;2022-12-18T05:22:53;7.47;;;5.30;;
71150;SDS011;59071;42.138;24.768;2022-12-18T05:25:19;8.35;;;5.60;;
71150;SDS011;59071;42.138;24.768;2022-12-18T05:27:45;9.10;;;5.70;;
71150;SDS011;59071;42.138;24.768;2022-12-18T05:30:10;7.95;;;5.43;;
71150;SDS011;59071;42.138;24.768;2022-12-18T05:32:37;9.15;;;6.35;;
71150;SDS011;59071;42.138;24.768;2022-12-18T05:35:03;8.18;;;5.90;;
71150;SDS011;59071;42.138;24.768;2022-12-18T05:37:30;9.77;;;6.70;;
71150;SDS011;59071;42.138;24.768;2022-12-18T05:39:55;9.50;;;6.53;;
71150;SDS011;59071;42.138;24.768;2022-12-18T05:42:21;10.90;;;6.18;;
71150;SDS011;59071;42.138;24.768;2022-12-18T05:44:46;9.18;;;6.47;;
71150;SDS011;59071;42.138;24.768;2022-12-18T05:47:12;9.88;;;6.63;;
71150;SDS011;59071;42.138;24.768;2022-12-18T05:49:37;9.32;;;6.28;;
71150;SDS011;59071;42.138;24.768;2022-12-18T05:52:02;10.07;;;6.35;;
71150;SDS011;59071;42.138;24.768;2022-12-18T05:54:28;7.75;;;5.70;;
71150;SDS011;59071;42.138;24.768;2022-12-18T05:56:53;9.23;;;5.85;;
71150;SDS011;59071;42.138;24.768;2022-12-18T05:59:19;9.68;;;6.22;;
71150;SDS011;59071;42.138;24.768;2022-12-18T06:01:44;9.07;;;6.15;;
71150;SDS011;59071;42.138;24.768;2022-12-18T06:04:10;9.32;;;5.90;;
71150;SDS011;59071;42.138;24.768;2022-12-18T06:06:36;7.63;;;5.55;;
71150;SDS011;59071;42.138;24.768;2022-12-18T06:09:01;8.73;;;5.32;;
71150;SDS011;59071;42.138;24.768;2022-12-18T06:11:33;6.78;;;5.30;;
71150;SDS011;59071;42.138;24.768;2022-12-18T06:13:59;7.53;;;5.70;;
71150;SDS011;59071;42.138;24.768;2022-12-18T06:16:26;10.55;;;6.32;;
71150;SDS011;59071;42.138;24.768;2022-12-18T06:18:52;12.63;;;7.35;;
71150;SDS011;59071;42.138;24.768;2022-12-18T06:21:18;10.38;;;6.00;;
71150;SDS011;59071;42.138;24.768;2022-12-18T06:23:44;10.63;;;6.20;;
71150;SDS011;59071;42.138;24.768;2022-12-18T06:26:11;43.40;;;24.38;;
71150;SDS011;59071;42.138;24.768;2022-12-18T06:28:37;7.90;;;5.53;;
71150;SDS011;59071;42.138;24.768;2022-12-18T06:31:03;7.60;;;5.22;;
71150;SDS011;59071;42.138;24.768;2022-12-18T06:33:30;9.35;;;5.80;;
71150;SDS011;59071;42.138;24.768;2022-12-18T06:36:03;7.65;;;5.70;;
71150;SDS011;59071;42.138;24.768;2022-12-18T06:38:34;9.02;;;5.72;;
71150;SDS011;59071;42.138;24.768;2022-12-18T06:41:00;8.88;;;5.65;;
71150;SDS011;59071;42.138;24.768;2022-12-18T06:43:30;8.07;;;5.32;;
71150;SDS011;59071;42.138;24.768;2022-12-18T06:45:59;8.00;;;5.20;;
71150;SDS011;59071;42.138;24.768;2022-12-18T06:48:26;9.95;;;5.13;;
71150;SDS011;59071;42.138;24.768;2022-12-18T06:50:51;7.75;;;5.38;;
71150;SDS011;59071;42.138;24.768;2022-12-18T06:53:16;7.65;;;5.32;;
71150;SDS011;59071;42.138;24.768;2022-12-18T06:55:42;7.28;;;5.10;;
71150;SDS011;59071;42.138;24.768;2022-12-18T06:58:08;8.38;;;5.55;;
71150;SDS011;59071;42.138;24.768;2022-12-18T07:00:33;7.50;;;5.07;;
71150;SDS011;59071;42.138;24.768;2022-12-18T07:02:59;7.18;;;5.28;;
71150;SDS011;59071;42.138;24.768;2022-12-18T07:05:24;9.95;;;5.43;;
71150;SDS011;59071;42.138;24.768;2022-12-18T07:07:50;8.95;;;5.53;;
71150;SDS011;59071;42.138;24.768;2022-12-18T07:10:15;8.88;;;5.35;;
71150;SDS011;59071;42.138;24.768;2022-12-18T07:12:40;8.00;;;5.65;;
71150;SDS011;59071;42.138;24.768;2022-12-18T07:15:06;9.02;;;5.72;;
71150;SDS011;59071;42.138;24.768;2022-12-18T07:17:32;22.33;;;12.13;;
71150;SDS011;59071;42.138;24.768;2022-12-18T07:19:57;12.82;;;8.23;;
71150;SDS011;59071;42.138;24.768;2022-12-18T07:22:23;8.80;;;5.63;;
71150;SDS011;59071;42.138;24.768;2022-12-18T07:24:50;8.65;;;5.70;;
71150;SDS011;59071;42.138;24.768;2022-12-18T07:27:15;10.30;;;6.22;;
71150;SDS011;59071;42.138;24.768;2022-12-18T07:29:41;9.38;;;6.47;;
71150;SDS011;59071;42.138;24.768;2022-12-18T07:32:06;10.50;;;6.78;;
71150;SDS011;59071;42.138;24.768;2022-12-18T07:34:32;10.02;;;6.53;;
71150;SDS011;59071;42.138;24.768;2022-12-18T07:36:57;9.52;;;6.40;;
71150;SDS011;59071;42.138;24.768;2022-12-18T07:39:23;8.85;;;5.80;;
71150;SDS011;59071;42.138;24.768;2022-12-18T07:41:48;9.32;;;5.78;;
71150;SDS011;59071;42.138;24.768;2022-12-18T07:44:34;8.48;;;5.55;;
71150;SDS011;59071;42.138;24.768;2022-12-18T07:46:59;9.93;;;5.50;;
71150;SDS011;59071;42.138;24.768;2022-12-18T07:49:25;8.73;;;5.90;;
71150;SDS011;59071;42.138;24.768;2022-12-18T07:51:50;9.35;;;5.90;;
71150;SDS011;59071;42.138;24.768;2022-12-18T07:54:15;20.77;;;13.82;;
71150;SDS011;59071;42.138;24.768;2022-12-18T07:56:41;9.63;;;6.38;;
71150;SDS011;59071;42.138;24.768;2022-12-18T07:59:06;8.52;;;5.55;;
71150;SDS011;59071;42.138;24.768;2022-12-18T08:01:32;9.40;;;5.80;;
71150;SDS011;59071;42.138;24.768;2022-12-18T08:03:59;9.32;;;6.20;;
71150;SDS011;59071;42.138;24.768;2022-12-18T08:06:24;12.45;;;6.30;;
71150;SDS011;59071;42.138;24.768;2022-12-18T08:08:51;9.85;;;6.03;;
71150;SDS011;59071;42.138;24.768;2022-12-18T08:11:17;12.35;;;6.20;;
71150;SDS011;59071;42.138;24.768;2022-12-18T08:13:43;11.20;;;6.00;;
71150;SDS011;59071;42.138;24.768;2022-12-18T08:16:08;10.30;;;5.93;;
71150;SDS011;59071;42.138;24.768;2022-12-18T08:18:34;9.27;;;6.50;;
71150;SDS011;59071;42.138;24.768;2022-12-18T08:21:11;9.52;;;5.55;;
71150;SDS011;59071;42.138;24.768;2022-12-18T08:23:38;10.90;;;6.50;;
71150;SDS011;59071;42.138;24.768;2022-12-18T08:26:04;9.68;;;6.10;;
71150;SDS011;59071;42.138;24.768;2022-12-18T08:28:30;8.15;;;5.35;;
71150;SDS011;59071;42.138;24.768;2022-12-18T08:30:55;8.30;;;5.75;;
71150;SDS011;59071;42.138;24.768;2022-12-18T08:33:21;8.65;;;5.28;;
71150;SDS011;59071;42.138;24.768;2022-12-18T08:35:46;11.20;;;7.53;;
71150;SDS011;59071;42.138;24.768;2022-12-18T08:38:11;8.65;;;5.75;;
71150;SDS011;59071;42.138;24.768;2022-12-18T08:40:37;10.00;;;6.15;;
71150;SDS011;59071;42.138;24.768;2022-12-18T08:43:02;9.38;;;6.15;;
71150;SDS011;59071;42.138;24.768;2022-12-18T08:45:46;9.82;;;5.70;;
71150;SDS011;59071;42.138;24.768;2022-12-18T08:48:11;10.05;;;6.13;;
71150;SDS011;59071;42.138;24.768;2022-12-18T08:50:37;10.00;;;6.10;;
71150;SDS011;59071;42.138;24.768;2022-12-18T08:53:02;7.72;;;5.30;;
71150;SDS011;59071;42.138;24.768;2022-12-18T08:55:28;11.10;;;5.60;;
71150;SDS011;59071;42.138;24.768;2022-12-18T08:57:53;9.93;;;5.90;;
71150;SDS011;59071;42.138;24.768;2022-12-18T09:00:19;9.70;;;5.88;;
71150;SDS011;59071;42.138;24.768;2022-12-18T09:02:45;9.88;;;5.85;;
71150;SDS011;59071;42.138;24.768;2022-12-18T09:05:10;8.32;;;5.63;;
71150;SDS011;59071;42.138;24.768;2022-12-18T09:07:35;9.13;;;5.22;;
71150;SDS011;59071;42.138;24.768;2022-12-18T09:10:01;7.45;;;5.60;;
71150;SDS011;59071;42.138;24.768;2022-12-18T09:12:27;11.63;;;6.07;;
71150;SDS011;59071;42.138;24.768;2022-12-18T09:14:52;9.65;;;5.50;;
71150;SDS011;59071;42.138;24.768;2022-12-18T09:17:17;8.85;;;5.28;;
71150;SDS011;59071;42.138;24.768;2022-12-18T09:19:43;8.30;;;4.85;;
71150;SDS011;59071;42.138;24.768;2022-12-18T09:22:09;12.02;;;7.35;;
71150;SDS011;59071;42.138;24.768;2022-12-18T09:24:34;9.40;;;5.78;;
71150;SDS011;59071;42.138;24.768;2022-12-18T09:27:00;9.30;;;5.57;;
71150;SDS011;59071;42.138;24.768;2022-12-18T09:29:25;7.55;;;5.05;;
71150;SDS011;59071;42.138;24.768;2022-12-18T09:31:51;8.60;;;5.63;;
71150;SDS011;59071;42.138;24.768;2022-12-18T09:34:16;9.15;;;5.80;;
71150;SDS011;59071;42.138;24.768;2022-12-18T09:36:42;9.10;;;5.70;;
71150;SDS011;59071;42.138;24.768;2022-12-18T09:39:07;7.75;;;5.82;;
71150;SDS011;59071;42.138;24.768;2022-12-18T09:41:54;8.60;;;5.60;;
71150;SDS011;59071;42.138;24.768;2022-12-18T09:44:41;9.57;;;5.90;;
71150;SDS011;59071;42.138;24.768;2022-12-18T09:47:13;8.77;;;6.20;;
71150;SDS011;59071;42.138;24.768;2022-12-18T09:49:44;9.38;;;5.88;;
71150;SDS011;59071;42.138;24.768;2022-12-18T09:52:16;10.73;;;6.30;;
71150;SDS011;59071;42.138;24.768;2022-12-18T09:54:49;8.02;;;5.82;;
71150;SDS011;59071;42.138;24.768;2022-12-18T09:57:20;11.23;;;6.15;;
71150;SDS011;59071;42.138;24.768;2022-12-18T09:59:50;9.88;;;5.82;;
71150;SDS011;59071;42.138;24.768;2022-12-18T10:02:25;9.65;;;6.47;;
71150;SDS011;59071;42.138;24.768;2022-12-18T10:10:10;14.02;;;7.68;;
71150;SDS011;59071;42.138;24.768;2022-12-18T10:12:56;11.30;;;7.13;;
71150;SDS011;59071;42.138;24.768;2022-12-18T10:21:19;11.25;;;6.72;;
71150;SDS011;59071;42.138;24.768;2022-12-18T10:26:14;11.88;;;6.05;;
71150;SDS011;59071;42.138;24.768;2022-12-18T10:28:40;9.63;;;6.32;;
71150;SDS011;59071;42.138;24.768;2022-12-18T10:31:06;10.88;;;6.57;;
71150;SDS011;59071;42.138;24.768;2022-12-18T10:36:12;12.73;;;7.93;;
71150;SDS011;59071;42.138;24.768;2022-12-18T10:38:37;10.05;;;5.88;;
71150;SDS011;59071;42.138;24.768;2022-12-18T10:41:04;10.13;;;6.82;;
71150;SDS011;59071;42.138;24.768;2022-12-18T10:46:35;10.40;;;6.45;;
71150;SDS011;59071;42.138;24.768;2022-12-18T10:49:01;10.00;;;6.55;;
71150;SDS011;59071;42.138;24.768;2022-12-18T10:51:32;10.65;;;6.15;;
71150;SDS011;59071;42.138;24.768;2022-12-18T10:56:30;11.40;;;6.80;;
71150;SDS011;59071;42.138;24.768;2022-12-18T10:59:02;10.50;;;6.38;;
71150;SDS011;59071;42.138;24.768;2022-12-18T11:01:47;12.18;;;6.65;;
71150;SDS011;59071;42.138;24.768;2022-12-18T11:04:17;10.55;;;6.75;;
71150;SDS011;59071;42.138;24.768;2022-12-18T11:06:58;10.30;;;6.70;;
71150;SDS011;59071;42.138;24.768;2022-12-18T11:09:27;12.00;;;7.25;;
71150;SDS011;59071;42.138;24.768;2022-12-18T11:11:58;12.35;;;7.18;;
71150;SDS011;59071;42.138;24.768;2022-12-18T11:16:56;9.15;;;6.45;;
71150;SDS011;59071;42.138;24.768;2022-12-18T11:21:58;11.32;;;7.15;;
71150;SDS011;59071;42.138;24.768;2022-12-18T11:26:59;11.15;;;6.78;;
71150;SDS011;59071;42.138;24.768;2022-12-18T11:29:36;9.70;;;6.80;;
71150;SDS011;59071;42.138;24.768;2022-12-18T11:32:19;10.77;;;6.70;;
71150;SDS011;59071;42.138;24.768;2022-12-18T11:34:52;9.82;;;6.65;;
71150;SDS011;59071;42.138;24.768;2022-12-18T11:37:41;9.52;;;6.70;;
71150;SDS011;59071;42.138;24.768;2022-12-18T11:40:14;11.23;;;6.85;;
71150;SDS011;59071;42.138;24.768;2022-12-18T11:43:26;13.10;;;6.63;;
71150;SDS011;59071;42.138;24.768;2022-12-18T11:45:37;11.80;;;7.20;;
71150;SDS011;59071;42.138;24.768;2022-12-18T11:49:10;12.88;;;6.72;;
71150;SDS011;59071;42.138;24.768;2022-12-18T11:51:14;10.85;;;7.13;;
71150;SDS011;59071;42.138;24.768;2022-12-18T11:53:47;13.55;;;7.95;;
71150;SDS011;59071;42.138;24.768;2022-12-18T11:56:43;11.30;;;7.55;;
71150;SDS011;59071;42.138;24.768;2022-12-18T12:04:56;12.85;;;8.10;;
71150;SDS011;59071;42.138;24.768;2022-12-18T12:13:49;24.33;;;14.82;;
71150;SDS011;59071;42.138;24.768;2022-12-18T12:18:55;12.15;;;7.75;;
71150;SDS011;59071;42.138;24.768;2022-12-18T12:29:40;11.25;;;7.60;;
71150;SDS011;59071;42.138;24.768;2022-12-18T12:35:22;11.77;;;7.63;;
71150;SDS011;59071;42.138;24.768;2022-12-18T12:38:10;11.57;;;7.63;;
71150;SDS011;59071;42.138;24.768;2022-12-18T12:40:42;19.38;;;11.75;;
71150;SDS011;59071;42.138;24.768;2022-12-18T12:45:55;14.52;;;8.20;;
71150;SDS011;59071;42.138;24.768;2022-12-18T12:48:42;11.63;;;7.55;;
71150;SDS011;59071;42.138;24.768;2022-12-18T12:51:21;12.05;;;7.30;;
71150;SDS011;59071;42.138;24.768;2022-12-18T12:53:50;12.77;;;7.25;;
71150;SDS011;59071;42.138;24.768;2022-12-18T12:56:18;10.48;;;7.15;;
71150;SDS011;59071;42.138;24.768;2022-12-18T13:07:13;12.05;;;7.45;;
71150;SDS011;59071;42.138;24.768;2022-12-18T13:13:08;12.32;;;7.85;;
71150;SDS011;59071;42.138;24.768;2022-12-18T13:15:47;29.02;;;16.05;;
71150;SDS011;59071;42.138;24.768;2022-12-18T13:18:23;15.73;;;9.38;;
71150;SDS011;59071;42.138;24.768;2022-12-18T13:23:32;11.55;;;7.93;;
71150;SDS011;59071;42.138;24.768;2022-12-18T13:36:41;13.57;;;7.72;;
71150;SDS011;59071;42.138;24.768;2022-12-18T13:39:20;13.15;;;8.57;;
71150;SDS011;59071;42.138;24.768;2022-12-18T13:41:50;12.32;;;8.48;;
71150;SDS011;59071;42.138;24.768;2022-12-18T13:44:58;14.48;;;8.77;;
71150;SDS011;59071;42.138;24.768;2022-12-18T13:47:31;13.13;;;8.50;;
71150;SDS011;59071;42.138;24.768;2022-12-18T13:49:59;14.75;;;9.35;;
71150;SDS011;59071;42.138;24.768;2022-12-18T13:52:26;14.85;;;9.82;;
71150;SDS011;59071;42.138;24.768;2022-12-18T13:54:54;19.63;;;12.55;;
71150;SDS011;59071;42.138;24.768;2022-12-18T13:57:32;17.40;;;11.93;;
71150;SDS011;59071;42.138;24.768;2022-12-18T14:02:47;17.52;;;11.73;;
71150;SDS011;59071;42.138;24.768;2022-12-18T14:05:27;15.20;;;10.07;;
71150;SDS011;59071;42.138;24.768;2022-12-18T14:07:55;16.02;;;9.30;;
71150;SDS011;59071;42.138;24.768;2022-12-18T14:10:35;15.70;;;10.23;;
71150;SDS011;59071;42.138;24.768;2022-12-18T14:13:05;15.95;;;9.63;;
71150;SDS011;59071;42.138;24.768;2022-12-18T14:20:44;15.35;;;10.00;;
71150;SDS011;59071;42.138;24.768;2022-12-18T14:25:54;17.60;;;11.63;;
71150;SDS011;59071;42.138;24.768;2022-12-18T14:28:19;16.15;;;10.85;;
71150;SDS011;59071;42.138;24.768;2022-12-18T14:30:47;15.52;;;10.40;;
71150;SDS011;59071;42.138;24.768;2022-12-18T14:33:17;22.10;;;12.00;;
71150;SDS011;59071;42.138;24.768;2022-12-18T14:38:30;17.10;;;10.10;;
71150;SDS011;59071;42.138;24.768;2022-12-18T14:40:58;17.95;;;10.52;;
71150;SDS011;59071;42.138;24.768;2022-12-18T14:43:25;16.75;;;10.60;;
71150;SDS011;59071;42.138;24.768;2022-12-18T14:45:52;18.48;;;11.10;;
71150;SDS011;59071;42.138;24.768;2022-12-18T14:48:22;19.30;;;11.90;;
71150;SDS011;59071;42.138;24.768;2022-12-18T14:53:33;17.40;;;11.27;;
71150;SDS011;59071;42.138;24.768;2022-12-18T14:56:02;19.30;;;11.50;;
71150;SDS011;59071;42.138;24.768;2022-12-18T14:58:35;21.75;;;12.88;;
71150;SDS011;59071;42.138;24.768;2022-12-18T15:01:01;23.83;;;12.82;;
71150;SDS011;59071;42.138;24.768;2022-12-18T15:03:26;23.38;;;12.98;;
71150;SDS011;59071;42.138;24.768;2022-12-18T15:05:52;21.77;;;11.82;;
71150;SDS011;59071;42.138;24.768;2022-12-18T15:08:28;60.35;;;33.95;;
71150;SDS011;59071;42.138;24.768;2022-12-18T15:11:02;24.05;;;14.80;;
71150;SDS011;59071;42.138;24.768;2022-12-18T15:13:28;22.50;;;13.30;;
71150;SDS011;59071;42.138;24.768;2022-12-18T15:15:54;31.20;;;17.25;;
71150;SDS011;59071;42.138;24.768;2022-12-18T15:18:35;22.05;;;13.70;;
71150;SDS011;59071;42.138;24.768;2022-12-18T15:21:08;23.02;;;12.95;;
71150;SDS011;59071;42.138;24.768;2022-12-18T15:23:38;28.00;;;16.55;;
71150;SDS011;59071;42.138;24.768;2022-12-18T15:26:15;29.40;;;16.90;;
71150;SDS011;59071;42.138;24.768;2022-12-18T15:36:16;20.88;;;11.77;;
71150;SDS011;59071;42.138;24.768;2022-12-18T15:38:45;21.38;;;12.38;;
71150;SDS011;59071;42.138;24.768;2022-12-18T15:41:15;21.05;;;12.60;;
71150;SDS011;59071;42.138;24.768;2022-12-18T15:43:45;23.92;;;13.77;;
71150;SDS011;59071;42.138;24.768;2022-12-18T15:46:13;22.98;;;13.85;;
71150;SDS011;59071;42.138;24.768;2022-12-18T15:48:53;20.20;;;13.10;;
71150;SDS011;59071;42.138;24.768;2022-12-18T15:51:27;22.08;;;12.75;;
71150;SDS011;59071;42.138;24.768;2022-12-18T15:53:54;20.45;;;12.75;;
71150;SDS011;59071;42.138;24.768;2022-12-18T15:56:21;18.50;;;11.35;;
71150;SDS011;59071;42.138;24.768;2022-12-18T15:59:13;16.90;;;10.93;;
71150;SDS011;59071;42.138;24.768;2022-12-18T16:01:41;19.27;;;11.20;;
71150;SDS011;59071;42.138;24.768;2022-12-18T16:04:12;14.50;;;10.32;;
71150;SDS011;59071;42.138;24.768;2022-12-18T16:09:04;15.25;;;9.20;;
71150;SDS011;59071;42.138;24.768;2022-12-18T16:11:31;13.30;;;7.93;;
71150;SDS011;59071;42.138;24.768;2022-12-18T16:16:51;12.77;;;8.50;;
71150;SDS011;59071;42.138;24.768;2022-12-18T16:19:19;14.50;;;9.05;;
71150;SDS011;59071;42.138;24.768;2022-12-18T16:21:46;12.68;;;8.27;;
71150;SDS011;59071;42.138;24.768;2022-12-18T16:24:16;11.80;;;8.00;;
71150;SDS011;59071;42.138;24.768;2022-12-18T16:26:43;17.20;;;8.73;;
71150;SDS011;59071;42.138;24.768;2022-12-18T16:29:09;12.57;;;7.45;;
71150;SDS011;59071;42.138;24.768;2022-12-18T16:31:39;12.45;;;7.20;;
71150;SDS011;59071;42.138;24.768;2022-12-18T16:34:18;12.68;;;8.38;;
71150;SDS011;59071;42.138;24.768;2022-12-18T16:36:51;14.93;;;9.85;;
71150;SDS011;59071;42.138;24.768;2022-12-18T16:39:18;14.02;;;8.65;;
71150;SDS011;59071;42.138;24.768;2022-12-18T16:41:44;13.50;;;8.77;;
71150;SDS011;59071;42.138;24.768;2022-12-18T16:44:09;20.52;;;10.48;;
71150;SDS011;59071;42.138;24.768;2022-12-18T16:46:36;15.18;;;9.73;;
71150;SDS011;59071;42.138;24.768;2022-12-18T16:49:02;16.65;;;9.45;;
71150;SDS011;59071;42.138;24.768;2022-12-18T16:51:28;12.88;;;7.95;;
71150;SDS011;59071;42.138;24.768;2022-12-18T16:53:54;13.75;;;8.90;;
71150;SDS011;59071;42.138;24.768;2022-12-18T16:56:23;15.20;;;10.10;;
71150;SDS011;59071;42.138;24.768;2022-12-18T16:58:51;12.38;;;8.57;;
71150;SDS011;59071;42.138;24.768;2022-12-18T17:01:17;14.20;;;9.25;;
71150;SDS011;59071;42.138;24.768;2022-12-18T17:03:42;15.57;;;8.50;;
71150;SDS011;59071;42.138;24.768;2022-12-18T17:06:08;16.75;;;10.00;;